CheckWX is a tool to help pilots better visualize weather data.  It is not intended as a substitute for an official pre-flight weather briefing.

04:38:15 UTC

KRBG TAF
Roseburg Regional Airport
Roseburg, Oregon, USA
KRBG 162320Z 1700/1724 23010KT P6SM -SHRA BKN050 FM170600 VRB03KT P6SM SCT050 FM171600 18010KT P6SM -RA OVC040

Sep-17@
00:00 UTC

Sep-17 @ 00:00 UTC

Sep-17@
06:00 UTC

Sep-17 @ 06:00 UTC

KRBG 162320Z 1700/1724 23010KT P6SM -SHRA BKN050
Wind
  • 230° at 10 KTS
Conditions
Light Rain
Cloud Levels
  • Broken at 5,000' AGL

Sep-17@
06:00 UTC

Sep-17 @ 06:00 UTC

Sep-17@
16:00 UTC

Sep-17 @ 16:00 UTC

FM170600 VRB03KT P6SM SCT050

From

From Standard forecast or significant change

Wind
  • Variable at 3 KTS
Cloud Levels
  • Scattered at 5,000' AGL

Sep-17@
16:00 UTC

Sep-17 @ 16:00 UTC

Sep-18@
00:00 UTC

Sep-18 @ 00:00 UTC

FM171600 18010KT P6SM -RA OVC040

From

From Standard forecast or significant change

Wind
  • 180° at 10 KTS
Conditions
Light Rain
Cloud Levels
  • Overcast at 4,000' AGL